Kimberley, Arkansas
Current Conditions -  °F | °C
As of 12:53 PM on Monday 20 Oct 2014 (Local Time) from KMWT Reporting Station
Broken Clouds Broken Clouds  
Wind Chill: 69°   Ceiling: 6000
Heat Index: 69°   Visibility: 10mi
Dew Point: 53°   Wind: 3mph
Humidity: 57%   Direction: 260°W
Pressure: 30.06"   Gusts: NA
Location:  34.0925°N, 93.718°W
Report Text: KMWT 201753Z AUTO 26003KT 10SM SCT049 BKN060 21/12 A3006 RMK AO2 SLP178 T02060117 10211 20078 58013
Loading
Personal Weather Stations






























Interactive Weather Map
Tropical Storm Tracking
New forecast layout! Learn more

10-Day Weather Forecast

Advertisements
Track Severe Weather on mobile